Burlington, VT

7:57 PM EST on February 07, 2016 (GMT -0500)
Old North End | | Change Station
CLOSE
Current Station
Personal Weather Station
Location: Burlington, VT
Elevation: 226 ft
Nearby Weather Stations

Elev 226 ft 44.49 °N, 73.22 °W | Updated 2 seconds ago

Partly Cloudy
Partly Cloudy
21.7 °F
Feels Like 22 °F
N
0.2
Wind Variable Wind from North
Gusts 2.5 mph

Today
High -- | Low -- °F
--% Chance of Precip.
Yesterday
High -- | Low -- °F
Precip. -- in
Pressure 30.15 in
Visibility 10.0 miles
Clouds Scattered Clouds 5000 ft
Windchill 22 °F
Dew Point 7 °F
Humidity 53%
Rainfall 0.00 in
Snow Depth Not available.
7:04 AM 5:09 PM
Waning Crescent, 0% visible
METAR KBTV 080054Z 33007KT 10SM SCT050 M06/M12 A3013 RMK AO2 SLP209 T10561117
Pressure 30.15 in
Visibility 10.0 miles
Clouds Scattered Clouds 5000 ft
Windchill 22 °F
Dew Point 7 °F
Humidity 53%
Rainfall 0.00 in
Snow Depth Not available.
7:04 AM 5:09 PM
Waning Crescent, 0% visible
METAR KBTV 080054Z 33007KT 10SM SCT050 M06/M12 A3013 RMK AO2 SLP209 T10561117

10-Day Weather Forecast

Almanac

Astronomy

Feb. 07, 2016 Rise Set
Actual Time
Civil Twilight
Nautical Twilight
Astronomical Twilight
Moon
Length of Visible Light
Length of Day
Tomorrow will be .
, % of the Moon is Illuminated

Today's Extremes

State Highs State Lows

Community

WunderPhotos

Upload Photos

1,891,339 photos uploaded!

WunderBlog® & News

Nearby

Air Quality

  Air Quality AQ Index Pollutant
Not available.

Snow Depth

Station Depth Elevation

Earthquake Activity

City Distance Mag. Time & Date
Minimum magnitude displayed is 2.5.

Coastal Water Temperatures

Place Temperature

Stations

Nearby Weather Stations

Station Location Temp. Windchill Dew Point Humidity Wind Precip. Elev Updated Type
                   

Watches & Warnings

There are currently no watches in effect.